Relampago, Texas
Current Conditions -  °F | °C
As of 1:15 PM on Friday 21 Nov 2014 (Local Time) from KT65 Reporting Station
Overcast Overcast  
Wind Chill: 77°   Ceiling: 3100
Heat Index: 79°   Visibility: 7mi
Dew Point: 67°   Wind: 16mph
Humidity: 70%   Direction: 150°SSE
Pressure: 30.01"   Gusts: 24mph
Location:  26.1456°N, 97.91°W
Report Text: KT65 211915Z AUTO 15014G21KT 7SM SCT023 BKN031 OVC050 25/19 A3001 RMK AO2 T02520194
Loading
Personal Weather Stations






























Interactive Weather Map New forecast layout! Learn more

10-Day Weather Forecast

Advertisements
Track Severe Weather on mobile